createdAt,value
2024-01-20T00:02:01.789Z,101818.22
2024-01-20T00:04:28.450Z,101823.00
2024-01-20T00:06:55.316Z,101813.00
2024-01-20T00:09:24.595Z,101813.78
2024-01-20T00:11:53.223Z,101819.53
2024-01-20T00:14:20.655Z,101818.13
2024-01-20T00:16:47.397Z,101817.69
2024-01-20T00:19:14.093Z,101827.47
2024-01-20T00:21:40.940Z,101825.25
2024-01-20T00:24:08.547Z,101825.03
2024-01-20T00:26:35.594Z,101827.88
2024-01-20T00:29:02.696Z,101826.50
2024-01-20T00:31:30.013Z,101828.94
2024-01-20T00:33:56.753Z,101831.13
2024-01-20T00:36:23.732Z,101831.00
2024-01-20T00:38:50.533Z,101837.97
2024-01-20T00:41:20.538Z,101831.03
2024-01-20T00:43:49.231Z,101837.31
2024-01-20T00:46:15.807Z,101834.13
2024-01-20T00:48:42.394Z,101830.38
2024-01-20T00:51:10.008Z,101830.81
2024-01-20T00:53:36.624Z,101832.69
2024-01-20T00:56:03.387Z,101829.16
2024-01-20T00:58:30.109Z,101826.06
2024-01-20T01:00:56.884Z,101830.81
2024-01-20T01:03:23.849Z,101834.13
2024-01-20T01:05:50.658Z,101836.78
2024-01-20T01:08:17.337Z,101833.03
2024-01-20T01:10:44.020Z,101838.63
2024-01-20T01:13:10.696Z,101834.75
2024-01-20T01:15:37.296Z,101837.66
2024-01-20T01:18:04.198Z,101842.97
2024-01-20T01:20:31.044Z,101843.66
2024-01-20T01:22:57.649Z,101848.22
2024-01-20T01:25:24.307Z,101851.78
2024-01-20T01:27:51.247Z,101856.47
2024-01-20T01:30:17.867Z,101853.09
2024-01-20T01:32:44.580Z,101861.34
2024-01-20T01:35:11.281Z,101862.50
2024-01-20T01:37:37.910Z,101872.72
2024-01-20T01:40:05.255Z,101867.94
2024-01-20T01:42:31.880Z,101870.38
2024-01-20T01:44:58.546Z,101868.28
2024-01-20T01:47:25.231Z,101870.06
2024-01-20T01:49:52.061Z,101874.22
2024-01-20T01:52:19.324Z,101867.84
2024-01-20T01:54:46.358Z,101860.19
2024-01-20T01:57:15.044Z,101870.16
2024-01-20T01:59:42.112Z,101871.53
2024-01-20T02:02:09.383Z,101865.47
2024-01-20T02:04:36.023Z,101868.56
2024-01-20T02:07:02.870Z,101873.03
2024-01-20T02:09:30.770Z,101871.19
2024-01-20T02:11:58.665Z,101864.13
2024-01-20T02:14:25.663Z,101865.22
2024-01-20T02:16:52.554Z,101867.91
2024-01-20T02:19:19.187Z,101876.31
2024-01-20T02:21:45.801Z,101876.31
2024-01-20T02:24:13.331Z,101880.25
2024-01-20T02:26:40.152Z,101876.31
2024-01-20T02:29:06.852Z,101877.38
2024-01-20T02:31:33.472Z,101872.94
2024-01-20T02:34:01.514Z,101886.53
2024-01-20T02:36:28.397Z,101879.03
2024-01-20T02:38:55.168Z,101873.88
2024-01-20T02:41:21.796Z,101888.81
2024-01-20T02:43:48.409Z,101884.06
2024-01-20T02:46:15.222Z,101875.47
2024-01-20T02:48:42.258Z,101884.75
2024-01-20T02:51:08.942Z,101892.28
2024-01-20T02:53:35.569Z,101893.84
2024-01-20T02:56:02.173Z,101898.06
2024-01-20T02:58:28.737Z,101890.19
2024-01-20T03:00:55.492Z,101898.28
2024-01-20T03:03:22.323Z,101899.41
2024-01-20T03:05:49.057Z,101900.06
2024-01-20T03:08:16.050Z,101901.50
2024-01-20T03:10:42.635Z,101905.72
2024-01-20T03:13:09.412Z,101902.03
2024-01-20T03:15:36.035Z,101903.16
2024-01-20T03:18:03.349Z,101904.53
2024-01-20T03:20:29.935Z,101907.63
2024-01-20T03:22:56.536Z,101910.69
2024-01-20T03:25:23.133Z,101905.81
2024-01-20T03:27:49.689Z,101904.56
2024-01-20T03:30:16.998Z,101909.94
2024-01-20T03:32:43.650Z,101913.31
2024-01-20T03:35:10.955Z,101915.47
2024-01-20T03:37:37.525Z,101914.00
2024-01-20T03:40:04.586Z,101918.47
2024-01-20T03:42:31.453Z,101914.53
2024-01-20T03:44:58.192Z,101913.03
2024-01-20T03:47:24.831Z,101913.56
2024-01-20T03:49:51.519Z,101923.47
2024-01-20T03:52:18.251Z,101918.97
2024-01-20T03:54:44.805Z,101920.03
2024-01-20T03:57:11.550Z,101915.44
2024-01-20T03:59:38.173Z,101908.56
2024-01-20T04:02:05.034Z,101914.97
2024-01-20T04:04:32.979Z,101917.75
2024-01-20T04:06:59.666Z,101914.78
2024-01-20T04:09:26.395Z,101928.75
2024-01-20T04:11:53.122Z,101921.47
2024-01-20T04:14:19.744Z,101929.91
2024-01-20T04:16:46.435Z,101939.06
2024-01-20T04:19:13.392Z,101932.16
2024-01-20T04:21:40.808Z,101939.06
2024-01-20T04:24:07.454Z,101941.38
2024-01-20T04:26:34.021Z,101944.41
2024-01-20T04:29:00.588Z,101950.94
2024-01-20T04:31:27.198Z,101949.38
2024-01-20T04:33:57.170Z,101939.84
2024-01-20T04:36:23.857Z,101946.16
2024-01-20T04:38:50.455Z,101949.47
2024-01-20T04:41:17.241Z,101944.16
2024-01-20T04:43:43.767Z,101947.84
2024-01-20T04:46:10.364Z,101957.19
2024-01-20T04:48:37.048Z,101963.16
2024-01-20T04:51:04.158Z,101968.44
2024-01-20T04:53:30.780Z,101974.53
2024-01-20T04:55:57.357Z,101966.69
2024-01-20T04:58:23.943Z,101968.13
2024-01-20T05:00:50.658Z,101980.88
2024-01-20T05:03:17.573Z,101979.50
2024-01-20T05:05:44.310Z,101978.97
2024-01-20T05:08:10.949Z,101981.66
2024-01-20T05:10:37.523Z,101977.69
2024-01-20T05:13:05.090Z,101991.34
2024-01-20T05:15:32.745Z,101987.13
2024-01-20T05:17:59.737Z,102002.59
2024-01-20T05:20:26.428Z,102005.13
2024-01-20T05:22:53.149Z,102002.81
2024-01-20T05:25:19.731Z,101993.50
2024-01-20T05:27:46.406Z,102002.19
2024-01-20T05:30:13.784Z,102005.09
2024-01-20T05:32:42.112Z,102004.16
2024-01-20T05:35:11.193Z,102015.56
2024-01-20T05:37:37.829Z,102020.16
2024-01-20T05:40:06.015Z,102016.06
2024-01-20T05:42:33.023Z,102022.56
2024-01-20T05:45:01.123Z,102020.94
2024-01-20T05:47:27.986Z,102016.06
2024-01-20T05:49:54.576Z,102019.06
2024-01-20T05:52:21.182Z,102018.50
2024-01-20T05:54:47.732Z,102023.34
2024-01-20T05:57:14.326Z,102023.97
2024-01-20T05:59:40.954Z,102025.81
2024-01-20T06:02:08.319Z,102030.00
2024-01-20T06:04:34.946Z,102027.81
2024-01-20T06:07:01.806Z,102029.91
2024-01-20T06:09:28.414Z,102037.03
2024-01-20T06:11:55.158Z,102035.28
2024-01-20T06:14:22.639Z,102040.84
2024-01-20T06:16:49.446Z,102039.09
2024-01-20T06:19:16.722Z,102042.38
2024-01-20T06:21:44.630Z,102045.19
2024-01-20T06:24:11.374Z,102049.50
2024-01-20T06:26:37.948Z,102038.81
2024-01-20T06:29:04.674Z,102048.38
2024-01-20T06:31:31.268Z,102049.28
2024-01-20T06:33:58.096Z,102054.91
2024-01-20T06:36:27.808Z,102060.38
2024-01-20T06:38:54.841Z,102066.13
2024-01-20T06:41:21.585Z,102064.34
2024-01-20T06:43:48.212Z,102064.09
2024-01-20T06:46:14.944Z,102068.44
2024-01-20T06:48:41.878Z,102071.22
2024-01-20T06:51:10.661Z,102066.88
2024-01-20T06:53:37.312Z,102079.13
2024-01-20T06:56:04.082Z,102076.56
2024-01-20T06:58:30.646Z,102071.34
2024-01-20T07:00:57.453Z,102079.63
2024-01-20T07:03:24.536Z,102073.78
2024-01-20T07:05:51.189Z,102069.72
2024-01-20T07:08:17.831Z,102068.44
2024-01-20T07:10:44.420Z,102085.66
2024-01-20T07:13:11.258Z,102086.03
2024-01-20T07:15:37.898Z,102089.09
2024-01-20T07:18:05.579Z,102090.38
2024-01-20T07:20:32.555Z,102089.59
2024-01-20T07:22:59.358Z,102085.38
2024-01-20T07:25:26.220Z,102085.88
2024-01-20T07:27:52.843Z,102087.94
2024-01-20T07:30:19.443Z,102084.88
2024-01-20T07:32:46.108Z,102081.69
2024-01-20T07:35:13.012Z,102079.91
2024-01-20T07:37:39.962Z,102089.59
2024-01-20T07:40:07.264Z,102085.66
2024-01-20T07:42:35.614Z,102097.28
2024-01-20T07:45:03.730Z,102093.97
2024-01-20T07:47:30.489Z,102097.25
2024-01-20T07:49:57.126Z,102097.41
2024-01-20T07:52:23.829Z,102104.41
2024-01-20T07:54:50.421Z,102099.31
2024-01-20T07:57:17.204Z,102103.66
2024-01-20T07:59:43.845Z,102108.75
2024-01-20T08:02:10.479Z,102122.41
2024-01-20T08:04:37.199Z,102119.06
2024-01-20T08:07:04.744Z,102129.44
2024-01-20T08:09:31.425Z,102130.44
2024-01-20T08:11:58.087Z,102123.94
2024-01-20T08:14:24.681Z,102136.31
2024-01-20T08:16:52.196Z,102131.59
2024-01-20T08:19:18.837Z,102135.69
2024-01-20T08:21:45.514Z,102137.84
2024-01-20T08:24:12.292Z,102141.69
2024-01-20T08:26:39.018Z,102143.22
2024-01-20T08:29:05.798Z,102145.53
2024-01-20T08:31:32.467Z,102150.88
2024-01-20T08:33:59.264Z,102146.53
2024-01-20T08:36:27.029Z,102155.22
2024-01-20T08:38:53.727Z,102162.59
2024-01-20T08:41:20.651Z,102168.38
2024-01-20T08:43:48.397Z,102163.88
2024-01-20T08:46:15.032Z,102158.91
2024-01-20T08:48:41.917Z,102164.25
2024-01-20T08:51:08.745Z,102174.63
2024-01-20T08:53:35.481Z,102172.44
2024-01-20T08:56:02.676Z,102173.47
2024-01-20T08:58:30.811Z,102180.50
2024-01-20T09:00:57.784Z,102181.22
2024-01-20T09:03:24.631Z,102183.44
2024-01-20T09:05:51.426Z,102182.91
2024-01-20T09:08:18.044Z,102187.13
2024-01-20T09:10:44.939Z,102187.88
2024-01-20T09:13:11.552Z,102177.69
2024-01-20T09:15:38.293Z,102180.63
2024-01-20T09:18:07.684Z,102177.69
2024-01-20T09:20:34.619Z,102184.31
2024-01-20T09:23:01.703Z,102181.13
2024-01-20T09:25:28.914Z,102172.84
2024-01-20T09:27:55.564Z,102172.84
2024-01-20T09:30:22.801Z,102178.19
2024-01-20T09:32:49.987Z,102182.00
2024-01-20T09:35:16.879Z,102182.03
2024-01-20T09:37:43.620Z,102187.13
2024-01-20T09:40:11.234Z,102184.13
2024-01-20T09:42:38.081Z,102189.94
2024-01-20T09:45:05.682Z,102188.38
2024-01-20T09:47:32.303Z,102190.13
2024-01-20T09:49:59.130Z,102191.81
2024-01-20T09:52:30.533Z,102206.50
2024-01-20T09:55:19.657Z,102197.66
2024-01-20T09:57:46.828Z,102203.84
2024-01-20T10:00:18.083Z,102206.34
2024-01-20T10:02:48.087Z,102204.47
2024-01-20T10:05:15.730Z,102200.13
2024-01-20T10:07:43.488Z,102205.69
2024-01-20T10:10:21.219Z,102205.91
2024-01-20T10:12:55.590Z,102213.00
2024-01-20T10:15:30.778Z,102209.75
2024-01-20T10:18:00.727Z,102207.38
2024-01-20T10:20:32.594Z,102201.63
2024-01-20T10:23:04.490Z,102193.34
2024-01-20T10:25:31.283Z,102201.56
2024-01-20T10:27:58.195Z,102195.38
2024-01-20T10:30:26.271Z,102202.53
2024-01-20T10:33:04.255Z,102204.25
2024-01-20T10:35:36.557Z,102208.28
2024-01-20T10:38:06.104Z,102204.25
2024-01-20T10:40:34.776Z,102202.69
2024-01-20T10:43:08.949Z,102204.06
2024-01-20T10:46:03.807Z,102205.97
2024-01-20T10:48:35.487Z,102209.03
2024-01-20T10:51:08.770Z,102205.84
2024-01-20T10:53:36.656Z,102212.56
2024-01-20T10:56:04.079Z,102205.28
2024-01-20T10:58:44.486Z,102198.38
2024-01-20T11:01:12.792Z,102195.38
2024-01-20T11:03:40.165Z,102198.88
2024-01-20T11:06:07.090Z,102200.66
2024-01-20T11:08:33.908Z,102197.13
2024-01-20T11:11:00.857Z,102194.91
2024-01-20T11:13:28.255Z,102189.09
2024-01-20T11:15:56.632Z,102187.53
2024-01-20T11:18:24.614Z,102193.34
2024-01-20T11:21:02.625Z,102175.38
2024-01-20T11:23:30.361Z,102179.53
2024-01-20T11:25:58.469Z,102181.59
2024-01-20T11:28:35.064Z,102184.28
2024-01-20T11:31:03.605Z,102188.09
2024-01-20T11:33:31.726Z,102181.19
2024-01-20T11:35:58.638Z,102189.31
2024-01-20T11:38:25.446Z,102190.84
2024-01-20T11:41:00.380Z,102185.13
2024-01-20T11:43:27.524Z,102177.06
2024-01-20T11:45:59.200Z,102182.38
2024-01-20T11:48:27.135Z,102176.91
2024-01-20T11:50:54.398Z,102181.63
2024-01-20T11:53:21.696Z,102181.28
2024-01-20T11:55:56.548Z,102179.19
2024-01-20T11:58:23.639Z,102178.00
2024-01-20T12:00:54.577Z,102170.59
2024-01-20T12:03:21.989Z,102172.09
2024-01-20T12:05:49.209Z,102162.84
2024-01-20T12:08:16.258Z,102157.66
2024-01-20T12:10:43.974Z,102161.28
2024-01-20T12:13:17.284Z,102156.78
2024-01-20T12:15:44.947Z,102146.38
2024-01-20T12:18:11.771Z,102152.63
2024-01-20T12:20:38.789Z,102149.00
2024-01-20T12:23:05.637Z,102152.38
2024-01-20T12:25:33.644Z,102154.34
2024-01-20T12:28:00.703Z,102152.25
2024-01-20T12:30:30.666Z,102133.47
2024-01-20T12:32:58.283Z,102140.22
2024-01-20T12:35:25.224Z,102136.59
2024-01-20T12:37:51.840Z,102134.38
2024-01-20T12:40:19.767Z,102131.47
2024-01-20T12:42:46.497Z,102136.34
2024-01-20T12:45:14.341Z,102130.31
2024-01-20T12:47:40.977Z,102123.19
2024-01-20T12:50:08.235Z,102128.72
2024-01-20T12:52:35.299Z,102126.75
2024-01-20T12:55:02.779Z,102124.66
2024-01-20T12:57:29.390Z,102122.97
2024-01-20T12:59:56.002Z,102110.91
2024-01-20T13:02:22.633Z,102111.81
2024-01-20T13:04:50.772Z,102119.34
2024-01-20T13:07:19.743Z,102114.34
2024-01-20T13:09:47.049Z,102117.63
2024-01-20T13:12:13.718Z,102102.69
2024-01-20T13:14:40.493Z,102113.06
2024-01-20T13:17:07.376Z,102112.66
2024-01-20T13:19:34.167Z,102123.34
2024-01-20T13:22:00.826Z,102114.41
2024-01-20T13:24:27.487Z,102107.94
2024-01-20T13:26:54.230Z,102100.53
2024-01-20T13:29:21.470Z,102109.13
2024-01-20T13:31:48.098Z,102099.38
2024-01-20T13:34:14.853Z,102099.63
2024-01-20T13:36:41.613Z,102098.75
2024-01-20T13:39:08.999Z,102105.75
2024-01-20T13:41:35.860Z,102103.75
2024-01-20T13:44:03.528Z,102097.78
2024-01-20T13:46:30.179Z,102105.22
2024-01-20T13:48:57.013Z,102113.69
2024-01-20T13:51:25.805Z,102118.44
2024-01-20T13:53:52.423Z,102123.09
2024-01-20T13:56:19.026Z,102120.22
2024-01-20T13:58:45.730Z,102112.81
2024-01-20T14:01:12.341Z,102119.63
2024-01-20T14:03:39.197Z,102122.00
2024-01-20T14:06:07.038Z,102120.63
2024-01-20T14:08:34.479Z,102129.63
2024-01-20T14:11:01.152Z,102126.16
2024-01-20T14:13:27.803Z,102131.19
2024-01-20T14:15:55.445Z,102125.38
2024-01-20T14:18:22.291Z,102132.47
2024-01-20T14:20:49.148Z,102131.09
2024-01-20T14:23:18.532Z,102125.03
2024-01-20T14:25:47.000Z,102124.38
2024-01-20T14:28:13.644Z,102129.63
2024-01-20T14:30:42.118Z,102128.22
2024-01-20T14:33:09.566Z,102128.69
2024-01-20T14:35:36.301Z,102127.44
2024-01-20T14:38:03.116Z,102131.47
2024-01-20T14:40:29.663Z,102134.84
2024-01-20T14:42:56.322Z,102133.63
2024-01-20T14:45:23.377Z,102136.63
2024-01-20T14:47:50.340Z,102138.28
2024-01-20T14:50:17.721Z,102139.66
2024-01-20T14:52:44.484Z,102130.38
2024-01-20T14:55:11.933Z,102140.38
2024-01-20T14:57:38.566Z,102130.28
2024-01-20T15:00:08.925Z,102135.03
2024-01-20T15:02:35.779Z,102139.06
2024-01-20T15:05:02.774Z,102140.25
2024-01-20T15:07:31.622Z,102132.47
2024-01-20T15:09:58.989Z,102137.72
2024-01-20T15:12:25.692Z,102139.34
2024-01-20T15:14:52.926Z,102137.25
2024-01-20T15:17:19.612Z,102138.97
2024-01-20T15:19:46.542Z,102134.91
2024-01-20T15:22:14.140Z,102140.31
2024-01-20T15:24:40.846Z,102151.50
2024-01-20T15:27:07.694Z,102147.50
2024-01-20T15:29:34.942Z,102145.78
2024-01-20T15:32:03.171Z,102150.13
2024-01-20T15:34:29.879Z,102150.06
2024-01-20T15:36:56.571Z,102157.94
2024-01-20T15:39:23.270Z,102155.03
2024-01-20T15:41:50.040Z,102154.41
2024-01-20T15:44:16.897Z,102152.88
2024-01-20T15:46:43.533Z,102157.38
2024-01-20T15:49:11.127Z,102158.94
2024-01-20T15:51:38.877Z,102152.66
2024-01-20T15:54:05.667Z,102157.59
2024-01-20T15:56:32.318Z,102165.19
2024-01-20T15:59:00.182Z,102162.97
2024-01-20T16:01:26.895Z,102165.91
2024-01-20T16:03:53.667Z,102161.22
2024-01-20T16:06:20.565Z,102165.81
2024-01-20T16:08:47.219Z,102156.78
2024-01-20T16:11:13.835Z,102160.44
2024-01-20T16:13:40.413Z,102166.25
2024-01-20T16:16:07.833Z,102160.78
2024-01-20T16:18:34.569Z,102155.66
2024-01-20T16:21:04.821Z,102156.13
2024-01-20T16:23:31.571Z,102160.78
2024-01-20T16:25:58.157Z,102156.00
2024-01-20T16:28:24.852Z,102156.88
2024-01-20T16:30:54.313Z,102158.69
2024-01-20T16:33:23.041Z,102161.53
2024-01-20T16:35:50.116Z,102154.75
2024-01-20T16:38:16.968Z,102159.56
2024-01-20T16:40:43.647Z,102152.97
2024-01-20T16:43:12.382Z,102148.03
2024-01-20T16:45:39.012Z,102149.19
2024-01-20T16:48:06.339Z,102149.56
2024-01-20T16:50:32.990Z,102150.22
2024-01-20T16:53:03.668Z,102151.66
2024-01-20T16:55:30.687Z,102154.00
2024-01-20T16:57:59.181Z,102152.34
2024-01-20T17:00:26.167Z,102152.38
2024-01-20T17:02:53.122Z,102148.38
2024-01-20T17:05:19.830Z,102155.25
2024-01-20T17:07:46.954Z,102157.00
2024-01-20T17:10:14.612Z,102152.09
2024-01-20T17:12:41.831Z,102154.34
2024-01-20T17:15:09.773Z,102158.63
2024-01-20T17:17:37.064Z,102150.72
2024-01-20T17:20:05.007Z,102156.50
2024-01-20T17:22:31.696Z,102161.31
2024-01-20T17:24:58.496Z,102167.13
2024-01-20T17:27:25.277Z,102157.88
2024-01-20T17:29:52.235Z,102166.53
2024-01-20T17:32:19.106Z,102163.47
2024-01-20T17:34:45.801Z,102154.13
2024-01-20T17:37:13.401Z,102163.97
2024-01-20T17:39:40.375Z,102161.03
2024-01-20T17:42:07.872Z,102158.09
2024-01-20T17:44:35.205Z,102153.00
2024-01-20T17:47:02.000Z,102154.06
2024-01-20T17:49:28.925Z,102150.59
2024-01-20T17:51:55.718Z,102139.78
2024-01-20T17:54:28.497Z,102148.09
2024-01-20T17:56:55.642Z,102152.69
2024-01-20T17:59:22.819Z,102146.69
2024-01-20T18:01:49.557Z,102153.19
2024-01-20T18:04:16.425Z,102144.22
2024-01-20T18:06:43.421Z,102152.19
2024-01-20T18:09:35.492Z,102164.69
2024-01-20T18:12:02.818Z,102149.00
2024-01-20T18:14:29.992Z,102164.34
2024-01-20T18:16:56.719Z,102147.25
2024-01-20T18:19:23.424Z,102150.28
2024-01-20T18:21:50.270Z,102160.31
2024-01-20T18:24:17.114Z,102149.81
2024-01-20T18:26:45.108Z,102160.00
2024-01-20T18:29:13.117Z,102159.13
2024-01-20T18:31:39.830Z,102165.91
2024-01-20T18:34:06.503Z,102165.09
2024-01-20T18:36:33.472Z,102167.81
2024-01-20T18:39:00.195Z,102164.59
2024-01-20T18:41:27.465Z,102168.66
2024-01-20T18:43:54.239Z,102161.25
2024-01-20T18:46:20.924Z,102161.34
2024-01-20T18:48:47.816Z,102170.31
2024-01-20T18:51:14.516Z,102164.78
2024-01-20T18:53:42.727Z,102175.31
2024-01-20T18:56:09.366Z,102170.47
2024-01-20T18:58:36.087Z,102157.47
2024-01-20T19:01:04.471Z,102163.38
2024-01-20T19:03:31.185Z,102172.25
2024-01-20T19:05:57.888Z,102160.69
2024-01-20T19:08:24.544Z,102161.78
2024-01-20T19:10:51.385Z,102166.75
2024-01-20T19:13:18.390Z,102155.59
2024-01-20T19:15:47.211Z,102155.06
2024-01-20T19:18:15.006Z,102160.22
2024-01-20T19:20:41.815Z,102145.16
2024-01-20T19:23:08.725Z,102150.38
2024-01-20T19:25:35.476Z,102149.53
2024-01-20T19:28:02.120Z,102145.78
2024-01-20T19:30:29.322Z,102147.78
2024-01-20T19:32:56.307Z,102136.97
2024-01-20T19:35:24.346Z,102142.59
2024-01-20T19:37:50.980Z,102145.63
2024-01-20T19:40:17.757Z,102145.44
2024-01-20T19:42:44.587Z,102138.78
2024-01-20T19:45:11.450Z,102138.03
2024-01-20T19:47:39.232Z,102138.72
2024-01-20T19:50:07.353Z,102144.94
2024-01-20T19:52:38.557Z,102141.59
2024-01-20T19:55:06.520Z,102129.69
2024-01-20T19:57:33.252Z,102141.56
2024-01-20T20:00:02.979Z,102130.06
2024-01-20T20:02:38.794Z,102140.88
2024-01-20T20:05:05.774Z,102128.31
2024-01-20T20:07:32.557Z,102133.16
2024-01-20T20:09:59.330Z,102127.13
2024-01-20T20:12:26.125Z,102133.50
2024-01-20T20:14:52.931Z,102129.22
2024-01-20T20:17:21.260Z,102129.56
2024-01-20T20:19:48.002Z,102124.19
2024-01-20T20:22:14.745Z,102130.31
2024-01-20T20:24:43.482Z,102128.53
2024-01-20T20:27:10.923Z,102137.34
2024-01-20T20:29:37.728Z,102124.81
2024-01-20T20:32:04.930Z,102129.50
2024-01-20T20:34:31.574Z,102122.66
2024-01-20T20:36:58.339Z,102119.22
2024-01-20T20:39:25.144Z,102112.69
2024-01-20T20:41:54.095Z,102116.28
2024-01-20T20:44:20.900Z,102108.34
2024-01-20T20:46:47.765Z,102114.41
2024-01-20T20:49:14.893Z,102113.16
2024-01-20T20:51:42.660Z,102110.72
2024-01-20T20:54:09.299Z,102106.25
2024-01-20T20:56:36.050Z,102098.31
2024-01-20T20:59:02.703Z,102097.94
2024-01-20T21:01:29.393Z,102087.13
2024-01-20T21:03:56.212Z,102091.41
2024-01-20T21:06:23.005Z,102092.09
2024-01-20T21:08:49.808Z,102083.47
2024-01-20T21:11:17.089Z,102088.88
2024-01-20T21:13:43.789Z,102086.59
2024-01-20T21:16:10.563Z,102080.00
2024-01-20T21:18:37.294Z,102082.81
2024-01-20T21:21:04.278Z,102089.25
2024-01-20T21:23:31.445Z,102083.91
2024-01-20T21:25:58.261Z,102081.97
2024-01-20T21:28:25.443Z,102086.69
2024-01-20T21:30:54.769Z,102080.94
2024-01-20T21:33:22.639Z,102089.91
2024-01-20T21:35:50.721Z,102078.03
2024-01-20T21:38:17.672Z,102076.94
2024-01-20T21:40:45.691Z,102071.38
2024-01-20T21:43:12.483Z,102066.84
2024-01-20T21:45:39.195Z,102053.09
2024-01-20T21:48:06.495Z,102053.19
2024-01-20T21:50:33.285Z,102043.00
2024-01-20T21:53:00.246Z,102039.94
2024-01-20T21:55:26.971Z,102040.31
2024-01-20T21:57:56.328Z,102048.88
2024-01-20T22:00:24.554Z,102036.63
2024-01-20T22:02:51.226Z,102027.66
2024-01-20T22:05:18.388Z,102038.03
2024-01-20T22:07:46.290Z,102041.63
2024-01-20T22:10:13.608Z,102038.03
2024-01-20T22:12:40.207Z,102042.84
2024-01-20T22:15:07.687Z,102036.81
2024-01-20T22:17:34.386Z,102034.72
2024-01-20T22:20:02.381Z,102043.47
2024-01-20T22:22:30.915Z,102042.22
2024-01-20T22:24:57.683Z,102034.53
2024-01-20T22:27:24.386Z,102028.91
2024-01-20T22:29:51.193Z,102037.84
2024-01-20T22:32:18.237Z,102037.84
2024-01-20T22:34:44.912Z,102045.81
2024-01-20T22:37:11.539Z,102037.38
2024-01-20T22:39:38.267Z,102034.84
2024-01-20T22:42:05.183Z,102031.28
2024-01-20T22:44:31.860Z,102022.94
2024-01-20T22:46:58.830Z,102018.91
2024-01-20T22:49:25.673Z,102016.72
2024-01-20T22:51:52.562Z,102019.75
2024-01-20T22:54:23.226Z,102018.38
2024-01-20T22:56:49.862Z,102006.66
2024-01-20T22:59:16.505Z,101996.22
2024-01-20T23:01:43.633Z,102006.13
2024-01-20T23:04:10.367Z,101988.63
2024-01-20T23:06:37.062Z,102005.50
2024-01-20T23:09:05.236Z,101994.50
2024-01-20T23:11:31.975Z,101990.00
2024-01-20T23:13:59.080Z,102005.50
2024-01-20T23:16:25.661Z,102011.63
2024-01-20T23:18:53.775Z,102010.59
2024-01-20T23:21:22.350Z,102021.53
2024-01-20T23:23:49.062Z,102015.97
2024-01-20T23:26:16.217Z,102010.22
2024-01-20T23:28:44.429Z,102008.81
2024-01-20T23:31:12.344Z,101998.59
2024-01-20T23:33:39.514Z,102003.50
2024-01-20T23:36:07.070Z,101990.31
2024-01-20T23:38:33.854Z,101991.78
2024-01-20T23:41:00.816Z,101988.56
2024-01-20T23:43:27.395Z,101989.31
2024-01-20T23:45:54.226Z,101987.66
2024-01-20T23:48:20.866Z,101995.09
2024-01-20T23:50:47.627Z,101980.56
2024-01-20T23:53:14.327Z,101977.47
2024-01-20T23:55:41.173Z,101969.31
2024-01-20T23:58:07.717Z,101965.50
